createdAt,value
2017-10-28T00:00:14.060Z,80.70
2017-10-28T00:02:41.599Z,80.70
2017-10-28T00:05:09.140Z,81.00
2017-10-28T00:07:36.713Z,80.80
2017-10-28T00:10:04.248Z,80.90
2017-10-28T00:12:32.557Z,81.10
2017-10-28T00:15:00.139Z,81.10
2017-10-28T00:17:27.680Z,81.10
2017-10-28T00:19:55.220Z,81.40
2017-10-28T00:22:22.819Z,81.50
2017-10-28T00:24:50.355Z,81.40
2017-10-28T00:27:17.883Z,81.40
2017-10-28T00:29:46.228Z,81.30
2017-10-28T00:32:21.073Z,81.20
2017-10-28T00:34:54.376Z,81.10
2017-10-28T00:37:21.915Z,81.00
2017-10-28T00:39:49.452Z,81.50
2017-10-28T00:42:17.012Z,81.50
2017-10-28T00:44:44.543Z,81.70
2017-10-28T00:47:12.083Z,81.70
2017-10-28T00:49:40.416Z,82.10
2017-10-28T00:52:07.955Z,82.10
2017-10-28T00:54:35.581Z,82.00
2017-10-28T00:57:03.159Z,82.30
2017-10-28T00:59:30.698Z,82.20
2017-10-28T01:01:58.997Z,82.50
2017-10-28T01:04:26.557Z,82.50
2017-10-28T01:06:54.115Z,82.70
2017-10-28T01:09:21.648Z,82.80
2017-10-28T01:11:49.969Z,82.80
2017-10-28T01:14:17.743Z,82.70
2017-10-28T01:16:46.048Z,82.80
2017-10-28T01:19:15.442Z,82.70
2017-10-28T01:21:42.981Z,82.60
2017-10-28T01:24:10.516Z,82.50
2017-10-28T01:26:38.084Z,82.70
2017-10-28T01:29:05.620Z,83.20
2017-10-28T01:31:33.932Z,83.10
2017-10-28T01:34:01.492Z,83.10
2017-10-28T01:36:29.019Z,83.30
2017-10-28T01:38:56.555Z,83.20
2017-10-28T01:41:24.140Z,83.40
2017-10-28T01:43:52.441Z,83.50
2017-10-28T01:46:19.976Z,83.40
2017-10-28T01:48:47.540Z,83.70
2017-10-28T01:51:16.439Z,83.90
2017-10-28T01:53:43.971Z,83.90
2017-10-28T01:56:11.548Z,83.90
2017-10-28T01:58:39.932Z,84.00
2017-10-28T02:01:07.471Z,84.10
2017-10-28T02:03:35.822Z,84.10
2017-10-28T02:06:03.357Z,83.90
2017-10-28T02:08:30.895Z,83.90
2017-10-28T02:10:58.460Z,83.60
2017-10-28T02:13:25.996Z,83.80
2017-10-28T02:15:54.687Z,84.30
2017-10-28T02:18:23.023Z,84.40
2017-10-28T02:20:50.564Z,84.30
2017-10-28T02:23:18.104Z,84.20
2017-10-28T02:25:45.688Z,84.00
2017-10-28T02:28:15.313Z,83.70
2017-10-28T02:30:42.841Z,83.60
2017-10-28T02:33:10.413Z,83.90
2017-10-28T02:35:37.948Z,83.90
2017-10-28T02:38:05.484Z,84.00
2017-10-28T02:40:33.804Z,84.00
2017-10-28T02:43:01.340Z,84.00
2017-10-28T02:45:28.875Z,84.20
2017-10-28T02:47:56.484Z,84.20
2017-10-28T02:50:24.019Z,84.40
2017-10-28T02:52:51.565Z,84.50
2017-10-28T02:55:19.903Z,84.50
2017-10-28T02:57:47.441Z,84.40
2017-10-28T03:00:16.529Z,84.50
2017-10-28T03:02:44.097Z,84.70
2017-10-28T03:05:11.631Z,84.60
2017-10-28T03:07:39.174Z,84.50
2017-10-28T03:10:06.759Z,84.60
2017-10-28T03:12:34.298Z,84.80
2017-10-28T03:15:01.840Z,84.60
2017-10-28T03:17:30.677Z,84.50
2017-10-28T03:19:58.215Z,84.50
2017-10-28T03:22:25.756Z,84.30
2017-10-28T03:24:54.079Z,84.30
2017-10-28T03:27:21.611Z,84.20
2017-10-28T03:29:49.158Z,84.50
2017-10-28T03:32:17.512Z,84.70
2017-10-28T03:34:45.045Z,84.70
2017-10-28T03:37:13.518Z,84.80
2017-10-28T03:39:41.085Z,85.00
2017-10-28T03:42:08.628Z,85.10
2017-10-28T03:47:34.840Z,85.30
2017-10-28T03:50:02.391Z,85.60
2017-10-28T03:52:29.932Z,85.50
2017-10-28T03:54:57.504Z,85.50
2017-10-28T03:57:25.043Z,85.40
2017-10-28T03:59:52.599Z,85.40
2017-10-28T04:02:20.172Z,85.50
2017-10-28T04:04:47.699Z,85.70
2017-10-28T04:07:16.424Z,85.60
2017-10-28T04:09:44.007Z,85.60
2017-10-28T04:12:11.543Z,85.70
2017-10-28T04:14:39.078Z,85.70
2017-10-28T04:17:06.636Z,85.60
2017-10-28T04:19:34.632Z,85.60
2017-10-28T04:22:02.161Z,85.70
2017-10-28T04:24:29.724Z,85.80
2017-10-28T04:29:50.196Z,85.70
2017-10-28T04:32:17.735Z,86.00
2017-10-28T04:34:45.313Z,86.10
2017-10-28T04:37:14.522Z,85.80
2017-10-28T04:50:12.127Z,85.70
2017-10-28T04:52:39.667Z,86.90
2017-10-28T04:55:07.972Z,86.70
2017-10-28T04:57:35.545Z,86.60
2017-10-28T05:00:03.080Z,86.60
2017-10-28T05:02:31.400Z,86.50
2017-10-28T05:04:58.973Z,86.50
2017-10-28T05:07:26.512Z,86.40
2017-10-28T05:09:54.048Z,86.40
2017-10-28T05:12:21.916Z,86.40
2017-10-28T05:14:49.457Z,86.30
2017-10-28T05:17:17.781Z,86.50
2017-10-28T05:19:45.661Z,86.50
2017-10-28T05:22:15.380Z,85.80
2017-10-28T05:24:42.937Z,85.80
2017-10-28T05:27:10.500Z,85.70
2017-10-28T05:29:38.099Z,85.40
2017-10-28T05:32:06.900Z,85.00
2017-10-28T05:34:34.529Z,85.00
2017-10-28T05:37:02.074Z,84.80
2017-10-28T05:39:29.615Z,84.60
2017-10-28T05:41:57.175Z,84.90
2017-10-28T05:44:24.728Z,84.70
2017-10-28T05:46:52.269Z,84.70
2017-10-28T05:49:19.837Z,85.00
2017-10-28T05:51:48.148Z,85.30
2017-10-28T05:54:17.191Z,85.30
2017-10-28T05:56:45.322Z,85.20
2017-10-28T05:59:23.632Z,85.50
2017-10-28T06:05:04.224Z,85.80
2017-10-28T06:07:31.762Z,86.20
2017-10-28T06:09:59.304Z,86.30
2017-10-28T06:12:27.069Z,86.30
2017-10-28T06:14:54.608Z,86.20
2017-10-28T06:17:22.148Z,86.20
2017-10-28T06:19:50.495Z,85.70
2017-10-28T06:22:18.049Z,85.70
2017-10-28T06:24:45.601Z,85.50
2017-10-28T06:27:14.584Z,85.40
2017-10-28T06:29:42.124Z,85.30
2017-10-28T06:32:09.660Z,85.20
2017-10-28T06:34:38.011Z,84.80
2017-10-28T06:37:05.538Z,84.80
2017-10-28T06:39:33.063Z,84.20
2017-10-28T06:42:00.627Z,84.10
2017-10-28T06:44:28.159Z,83.60
2017-10-28T06:46:55.684Z,83.10
2017-10-28T06:49:23.244Z,83.10
2017-10-28T06:51:50.771Z,82.90
2017-10-28T06:54:18.305Z,82.90
2017-10-28T06:56:46.646Z,83.00
2017-10-28T06:59:26.585Z,82.10
2017-10-28T07:05:46.451Z,81.60
2017-10-28T07:08:16.394Z,81.00
2017-10-28T07:10:43.919Z,81.00
2017-10-28T07:13:11.547Z,80.60
2017-10-28T07:15:39.080Z,80.70
2017-10-28T07:18:06.628Z,80.50
2017-10-28T07:20:34.300Z,80.30
2017-10-28T07:23:01.828Z,80.10
2017-10-28T07:25:30.128Z,79.40
2017-10-28T07:27:57.688Z,79.20
2017-10-28T07:30:25.217Z,78.10
2017-10-28T07:32:53.511Z,78.80
2017-10-28T07:35:21.112Z,78.80
2017-10-28T07:37:48.654Z,78.30
2017-10-28T07:40:17.223Z,78.50
2017-10-28T07:42:44.816Z,78.30
2017-10-28T07:45:12.353Z,79.00
2017-10-28T07:47:39.890Z,79.00
2017-10-28T07:50:08.224Z,78.90
2017-10-28T07:52:35.760Z,78.90
2017-10-28T07:55:03.304Z,79.10
2017-10-28T07:57:30.892Z,79.40
2017-10-28T07:59:58.419Z,79.20
2017-10-28T08:02:25.953Z,80.20
2017-10-28T08:04:54.279Z,79.60
2017-10-28T08:07:21.817Z,79.60
2017-10-28T08:09:49.353Z,79.60
2017-10-28T08:12:16.917Z,79.70
2017-10-28T08:14:44.459Z,79.80
2017-10-28T08:17:13.696Z,79.80
2017-10-28T08:19:41.284Z,79.80
2017-10-28T08:22:09.327Z,79.50
2017-10-28T08:24:36.856Z,79.20
2017-10-28T08:27:04.430Z,79.00
2017-10-28T08:29:31.967Z,78.10
2017-10-28T08:31:59.506Z,78.20
2017-10-28T08:34:27.059Z,77.10
2017-10-28T08:36:54.605Z,77.20
2017-10-28T08:39:22.138Z,77.20
2017-10-28T08:41:50.303Z,77.10
2017-10-28T08:44:17.841Z,77.40
2017-10-28T08:46:45.372Z,76.20
2017-10-28T08:49:24.668Z,76.70
2017-10-28T08:56:47.373Z,76.30
2017-10-28T08:59:29.702Z,76.80
2017-10-28T09:07:38.278Z,77.10
2017-10-28T09:10:06.687Z,77.10
2017-10-28T09:12:34.223Z,77.00
2017-10-28T09:15:01.873Z,77.20
2017-10-28T09:17:29.918Z,76.10
2017-10-28T09:19:57.557Z,77.40
2017-10-28T09:22:39.151Z,76.50
2017-10-28T09:25:07.739Z,74.90
2017-10-28T09:27:35.369Z,74.90
2017-10-28T09:30:03.000Z,73.70
2017-10-28T09:32:30.544Z,73.20
2017-10-28T09:34:58.096Z,70.60
2017-10-28T09:37:25.655Z,69.80
2017-10-28T09:39:53.259Z,69.70
2017-10-28T09:42:21.564Z,68.30
2017-10-28T09:44:49.164Z,68.30
2017-10-28T09:47:16.699Z,68.70
2017-10-28T09:49:44.236Z,67.80
2017-10-28T09:52:11.836Z,67.10
2017-10-28T09:54:39.416Z,66.90
2017-10-28T09:57:07.060Z,68.00
2017-10-28T09:59:34.631Z,67.70
2017-10-28T10:02:02.176Z,66.90
2017-10-28T10:04:29.717Z,66.60
2017-10-28T10:06:57.353Z,66.00
2017-10-28T10:09:24.909Z,66.30
2017-10-28T10:11:53.224Z,67.70
2017-10-28T10:14:20.805Z,67.60
2017-10-28T10:16:48.348Z,67.60
2017-10-28T10:19:16.543Z,68.00
2017-10-28T10:21:44.136Z,67.00
2017-10-28T10:24:11.824Z,66.60
2017-10-28T10:26:39.365Z,66.30
2017-10-28T10:29:06.950Z,66.40
2017-10-28T10:31:34.485Z,66.80
2017-10-28T10:34:02.787Z,67.60
2017-10-28T10:36:30.549Z,67.60
2017-10-28T10:39:00.177Z,65.20
2017-10-28T10:41:27.720Z,64.40
2017-10-28T10:43:55.328Z,64.30
2017-10-28T10:46:23.753Z,64.10
2017-10-28T10:48:51.396Z,62.60
2017-10-28T10:51:19.761Z,63.60
2017-10-28T10:53:48.475Z,63.50
2017-10-28T10:56:16.466Z,62.50
2017-10-28T10:58:44.044Z,62.40
2017-10-28T11:01:11.587Z,62.00
2017-10-28T11:03:41.346Z,63.50
2017-10-28T11:06:11.155Z,64.00
2017-10-28T11:08:39.269Z,63.40
2017-10-28T11:11:06.818Z,63.90
2017-10-28T11:13:34.467Z,62.70
2017-10-28T11:16:02.779Z,62.90
2017-10-28T11:18:30.328Z,62.90
2017-10-28T11:20:57.889Z,63.10
2017-10-28T11:23:25.435Z,63.60
2017-10-28T11:25:53.380Z,62.10
2017-10-28T11:28:20.946Z,59.30
2017-10-28T11:30:49.251Z,62.10
2017-10-28T11:33:16.810Z,62.00
2017-10-28T11:35:45.626Z,60.00
2017-10-28T11:38:27.656Z,60.20
2017-10-28T11:43:27.220Z,61.70
2017-10-28T11:45:54.764Z,60.60
2017-10-28T11:48:23.084Z,63.00
2017-10-28T11:50:50.697Z,63.60
2017-10-28T11:53:18.273Z,62.70
2017-10-28T11:55:45.832Z,61.80
2017-10-28T11:58:15.397Z,62.00
2017-10-28T12:00:42.948Z,62.00
2017-10-28T12:03:10.547Z,62.40
2017-10-28T12:05:38.130Z,62.20
2017-10-28T12:08:05.698Z,61.90
2017-10-28T12:10:33.266Z,62.10
2017-10-28T12:13:00.894Z,62.80
2017-10-28T12:15:28.456Z,63.20
2017-10-28T12:17:56.008Z,64.60
2017-10-28T12:20:24.346Z,63.10
2017-10-28T12:22:53.016Z,63.00
2017-10-28T12:25:21.366Z,64.10
2017-10-28T12:27:49.472Z,64.10
2017-10-28T12:30:17.919Z,63.40
2017-10-28T12:32:45.472Z,63.00
2017-10-28T12:35:23.716Z,61.00
2017-10-28T12:40:31.608Z,63.00
2017-10-28T12:42:59.189Z,61.70
2017-10-28T12:45:26.739Z,63.80
2017-10-28T12:47:54.360Z,63.10
2017-10-28T12:50:22.704Z,63.40
2017-10-28T12:52:50.260Z,63.40
2017-10-28T12:55:19.806Z,63.10
2017-10-28T13:05:39.421Z,63.10
2017-10-28T13:08:07.069Z,65.40
2017-10-28T13:10:34.721Z,65.70
2017-10-28T13:13:02.368Z,65.10
2017-10-28T13:15:29.968Z,65.90
2017-10-28T13:17:57.753Z,65.40
2017-10-28T13:20:25.361Z,62.50
2017-10-28T13:22:52.985Z,62.40
2017-10-28T13:25:21.381Z,61.60
2017-10-28T13:27:48.949Z,62.20
2017-10-28T13:30:17.791Z,61.40
2017-10-28T13:32:46.205Z,61.50
2017-10-28T13:35:16.277Z,61.50
2017-10-28T13:37:44.057Z,61.40
2017-10-28T13:40:11.663Z,61.00
2017-10-28T13:42:39.310Z,61.00
2017-10-28T13:45:06.925Z,61.80
2017-10-28T13:47:34.475Z,61.50
2017-10-28T13:50:02.028Z,62.00
2017-10-28T13:52:29.555Z,60.70
2017-10-28T13:54:57.092Z,61.80
2017-10-28T13:57:25.432Z,62.40
2017-10-28T13:59:52.969Z,62.20
2017-10-28T14:02:21.283Z,62.70
2017-10-28T14:04:48.860Z,62.70
2017-10-28T14:07:16.428Z,63.20
2017-10-28T14:09:43.960Z,62.70
2017-10-28T14:12:11.532Z,62.50
2017-10-28T14:14:39.067Z,62.50
2017-10-28T14:17:06.605Z,64.00
2017-10-28T14:19:34.187Z,62.40
2017-10-28T14:22:01.715Z,62.40
2017-10-28T14:24:29.252Z,63.40
2017-10-28T14:26:56.811Z,63.80
2017-10-28T14:29:24.339Z,63.90
2017-10-28T14:31:52.272Z,63.80
2017-10-28T14:34:19.840Z,63.80
2017-10-28T14:36:47.384Z,64.40
2017-10-28T14:39:17.225Z,64.60
2017-10-28T14:41:44.795Z,64.50
2017-10-28T14:44:12.336Z,65.10
2017-10-28T14:46:39.880Z,65.00
2017-10-28T14:49:08.212Z,64.50
2017-10-28T14:51:35.753Z,64.90
2017-10-28T14:54:03.541Z,65.80
2017-10-28T14:56:31.128Z,65.30
2017-10-28T14:58:58.985Z,65.30
2017-10-28T15:01:26.640Z,65.10
2017-10-28T15:03:54.314Z,65.60
2017-10-28T15:06:21.893Z,65.60
2017-10-28T15:08:49.443Z,65.60
2017-10-28T15:11:17.036Z,66.00
2017-10-28T15:13:44.662Z,65.50
2017-10-28T15:16:14.260Z,65.50
2017-10-28T15:18:42.612Z,65.00
2017-10-28T15:21:11.104Z,65.00
2017-10-28T15:23:38.723Z,66.10
2017-10-28T15:26:06.348Z,65.60
2017-10-28T15:28:33.909Z,65.90
2017-10-28T15:31:02.257Z,66.30
2017-10-28T15:33:29.941Z,66.60
2017-10-28T15:35:58.279Z,66.70
2017-10-28T15:38:25.807Z,66.70
2017-10-28T15:40:53.381Z,66.00
2017-10-28T15:43:20.920Z,66.20
2017-10-28T15:45:48.446Z,66.10
2017-10-28T15:48:16.786Z,66.70
2017-10-28T15:50:44.311Z,66.20
2017-10-28T15:53:12.915Z,66.20
2017-10-28T15:55:40.484Z,66.40
2017-10-28T15:58:08.108Z,66.30
2017-10-28T16:00:35.652Z,66.40
2017-10-28T16:03:03.988Z,66.40
2017-10-28T16:05:31.514Z,66.20
2017-10-28T16:07:59.064Z,66.40
2017-10-28T16:10:26.656Z,67.30
2017-10-28T16:12:54.192Z,66.60
2017-10-28T16:15:21.722Z,66.70
2017-10-28T16:17:49.309Z,66.70
2017-10-28T16:20:16.852Z,66.40
2017-10-28T16:22:45.155Z,66.40
2017-10-28T16:25:13.645Z,66.40
2017-10-28T16:27:41.177Z,66.40
2017-10-28T16:30:08.731Z,66.60
2017-10-28T16:32:36.312Z,66.90
2017-10-28T16:35:04.281Z,67.00
2017-10-28T16:37:31.825Z,66.70
2017-10-28T16:39:59.396Z,66.80
2017-10-28T16:42:27.025Z,67.30
2017-10-28T16:44:54.648Z,67.00
2017-10-28T16:47:22.208Z,67.70
2017-10-28T16:49:49.751Z,67.60
2017-10-28T16:52:17.285Z,67.80
2017-10-28T16:54:44.896Z,68.00
2017-10-28T16:57:12.473Z,68.00
2017-10-28T16:59:40.028Z,67.60
2017-10-28T17:02:07.634Z,67.50
2017-10-28T17:04:35.199Z,66.90
2017-10-28T17:07:02.846Z,67.70
2017-10-28T17:09:30.410Z,67.60
2017-10-28T17:11:57.959Z,67.90
2017-10-28T17:14:25.501Z,67.20
2017-10-28T17:16:53.100Z,67.30
2017-10-28T17:19:20.646Z,66.70
2017-10-28T17:21:48.188Z,67.50
2017-10-28T17:24:17.304Z,68.20
2017-10-28T17:26:44.839Z,67.50
2017-10-28T17:29:12.368Z,67.60
2017-10-28T17:31:39.936Z,67.50
2017-10-28T17:34:07.519Z,67.30
2017-10-28T17:36:35.061Z,67.20
2017-10-28T17:39:02.643Z,67.00
2017-10-28T17:41:30.178Z,66.40
2017-10-28T17:43:58.507Z,67.20
2017-10-28T17:46:26.183Z,67.10
2017-10-28T17:48:53.720Z,67.20
2017-10-28T17:51:22.018Z,67.50
2017-10-28T17:53:49.739Z,67.50
2017-10-28T17:56:17.296Z,66.90
2017-10-28T17:58:44.859Z,66.70
2017-10-28T18:01:12.511Z,65.90
2017-10-28T18:03:40.039Z,66.10
2017-10-28T18:06:07.568Z,65.20
2017-10-28T18:08:35.156Z,65.20
2017-10-28T18:11:02.687Z,64.70
2017-10-28T18:13:30.215Z,64.90
2017-10-28T18:15:57.763Z,64.30
2017-10-28T18:18:26.065Z,64.10
2017-10-28T18:20:53.696Z,64.10
2017-10-28T18:23:22.083Z,63.70
2017-10-28T18:25:50.584Z,63.60
2017-10-28T18:28:18.113Z,64.10
2017-10-28T18:30:45.664Z,64.10
2017-10-28T18:33:15.307Z,63.50
2017-10-28T18:35:42.847Z,63.40
2017-10-28T18:38:11.815Z,63.40
2017-10-28T18:40:39.347Z,63.40
2017-10-28T18:43:06.875Z,63.30
2017-10-28T18:45:34.486Z,63.20
2017-10-28T18:48:02.031Z,63.40
2017-10-28T18:50:29.635Z,62.60
2017-10-28T18:52:57.972Z,61.10
2017-10-28T18:55:25.507Z,61.10
2017-10-28T18:57:53.065Z,60.80
2017-10-28T19:00:20.828Z,61.30
2017-10-28T19:02:48.363Z,61.30
2017-10-28T19:05:16.429Z,61.50
2017-10-28T19:07:44.029Z,59.60
2017-10-28T19:10:11.580Z,59.90
2017-10-28T19:12:39.104Z,60.10
2017-10-28T19:15:07.431Z,59.50
2017-10-28T19:17:34.967Z,59.50
2017-10-28T19:20:02.496Z,59.20
2017-10-28T19:22:30.052Z,59.40
2017-10-28T19:24:57.596Z,59.60
2017-10-28T19:27:25.136Z,59.60
2017-10-28T19:29:52.872Z,59.40
2017-10-28T19:32:20.421Z,59.40
2017-10-28T19:34:47.980Z,58.80
2017-10-28T19:37:16.438Z,58.30
2017-10-28T19:39:44.116Z,58.80
2017-10-28T19:42:11.664Z,58.30
2017-10-28T19:44:39.991Z,56.80
2017-10-28T19:47:07.511Z,56.80
2017-10-28T19:49:35.807Z,57.30
2017-10-28T19:52:03.414Z,57.30
2017-10-28T19:54:30.953Z,57.30
2017-10-28T19:56:58.483Z,57.00
2017-10-28T19:59:26.043Z,56.70
2017-10-28T20:01:53.576Z,56.80
2017-10-28T20:04:21.115Z,57.00
2017-10-28T20:06:48.675Z,56.60
2017-10-28T20:09:16.442Z,57.20
2017-10-28T20:11:44.033Z,57.00
2017-10-28T20:14:12.380Z,56.50
2017-10-28T20:16:39.906Z,56.50
2017-10-28T20:19:07.431Z,56.20
2017-10-28T20:21:35.761Z,55.10
2017-10-28T20:24:03.304Z,55.70
2017-10-28T20:26:30.836Z,55.80
2017-10-28T20:28:58.385Z,55.80
2017-10-28T20:31:26.687Z,56.80
2017-10-28T20:33:54.229Z,56.80
2017-10-28T20:36:22.089Z,56.40
2017-10-28T20:38:50.392Z,56.00
2017-10-28T20:41:18.232Z,56.00
2017-10-28T20:43:46.552Z,58.10
2017-10-28T20:46:26.808Z,58.10
2017-10-28T20:53:16.085Z,59.20
2017-10-28T20:55:43.709Z,60.00
2017-10-28T20:58:11.248Z,61.10
2017-10-28T21:00:38.802Z,61.40
2017-10-28T21:03:06.348Z,61.70
2017-10-28T21:05:33.873Z,62.20
2017-10-28T21:08:01.432Z,63.30
2017-10-28T21:10:29.246Z,63.80
2017-10-28T21:12:56.880Z,65.00
2017-10-28T21:15:24.464Z,67.20
2017-10-28T21:17:52.000Z,69.00
2017-10-28T21:20:19.553Z,69.90
2017-10-28T21:22:47.144Z,69.80
2017-10-28T21:25:16.425Z,69.00
2017-10-28T21:27:43.960Z,69.50
2017-10-28T21:30:12.283Z,70.50
2017-10-28T21:32:39.816Z,70.40
2017-10-28T21:35:07.352Z,70.10
2017-10-28T21:37:35.267Z,69.50
2017-10-28T21:40:02.792Z,70.60
2017-10-28T21:42:30.748Z,70.90
2017-10-28T21:44:58.300Z,71.50
2017-10-28T21:47:27.380Z,71.70
2017-10-28T21:49:54.908Z,71.50
2017-10-28T21:52:22.460Z,72.40
2017-10-28T21:57:46.176Z,74.40
2017-10-28T22:00:27.187Z,74.10
2017-10-28T22:08:30.520Z,72.80
2017-10-28T22:10:58.052Z,72.70
2017-10-28T22:13:25.591Z,73.30
2017-10-28T22:15:54.106Z,76.20
2017-10-28T22:18:21.643Z,76.10
2017-10-28T22:20:49.945Z,76.90
2017-10-28T22:23:17.520Z,76.90
2017-10-28T22:25:45.043Z,77.10
2017-10-28T22:28:12.596Z,77.40
2017-10-28T22:30:40.172Z,76.50
2017-10-28T22:33:07.709Z,75.40
2017-10-28T22:35:39.583Z,77.70
2017-10-28T22:38:07.201Z,77.70
2017-10-28T22:40:34.735Z,78.80
2017-10-28T22:43:02.659Z,79.10
2017-10-28T22:45:30.981Z,79.00
2017-10-28T22:47:58.505Z,79.20
2017-10-28T22:50:26.801Z,79.70
2017-10-28T22:52:54.362Z,79.70
2017-10-28T22:55:22.704Z,79.40
2017-10-28T22:57:50.240Z,79.40
2017-10-28T23:00:17.819Z,80.20
2017-10-28T23:02:45.356Z,80.30
2017-10-28T23:05:24.999Z,80.80
2017-10-28T23:11:54.825Z,82.20
2017-10-28T23:14:22.360Z,83.00
2017-10-28T23:16:49.892Z,83.90
2017-10-28T23:19:18.235Z,84.50
2017-10-28T23:21:45.776Z,84.30
2017-10-28T23:24:14.539Z,84.90
2017-10-28T23:26:42.094Z,85.00
2017-10-28T23:29:09.632Z,85.20
2017-10-28T23:31:37.164Z,84.80
2017-10-28T23:34:04.725Z,84.90
2017-10-28T23:36:32.252Z,85.20
2017-10-28T23:38:59.780Z,85.40
2017-10-28T23:41:28.120Z,85.70
2017-10-28T23:43:55.971Z,85.60
2017-10-28T23:46:23.501Z,86.10
2017-10-28T23:48:51.077Z,85.20
2017-10-28T23:51:18.603Z,84.50
2017-10-28T23:53:46.899Z,85.50
2017-10-28T23:56:15.494Z,85.30
2017-10-28T23:58:43.043Z,85.00
